Goodwood — D5GY7 — position and weather

sailwx.info

Track history (hours):
 
Tides and Currents Weather Stations Pressure Air Temp Water Temp Dewpoint Dewpoint Depression Visibility Wind Speed Wind Dir Waves Ship Positions

Goodwood

Last reported at 2017-Oct-17 23:59 UTC. Time now 2017-Oct-18 00:23 UTC.
Position N 53°20' E 007°10'.

Length 199 m; draft 8.9 m.

Type: Cargo ship. MMSI: 636016606.

Date/timePositionNaut miles runAvg speedWind from/ knotsBaromVisibWave heightAir tempDewpointWater temp
2017-Oct-17 23:59N 53°20' E 007°10'0 0.0
2017-Oct-17 23:23N 53°20' E 007°10'0 0.0
2017-Oct-17 22:59N 53°20' E 007°10'0 0.0
2017-Oct-17 22:29N 53°20' E 007°10'0 0.0
2017-Oct-17 21:59N 53°20' E 007°10'0 0.0
2017-Oct-17 21:23N 53°20' E 007°10'0 0.0
2017-Oct-17 20:59N 53°20' E 007°10'0 0.0
2017-Oct-17 20:26N 53°20' E 007°10'0 0.0
2017-Oct-17 19:59N 53°20' E 007°10'0 0.0
2017-Oct-17 19:29N 53°20' E 007°10'0 0.0
2017-Oct-17 18:59N 53°20' E 007°10'0 0.0
2017-Oct-17 18:29N 53°20' E 007°10'0 0.0
2017-Oct-17 17:59N 53°20' E 007°10'0 0.0
2017-Oct-17 17:29N 53°20' E 007°10'0 0.0
2017-Oct-17 16:59N 53°20' E 007°10'0 0.0
2017-Oct-17 16:29N 53°20' E 007°10'0 0.0
2017-Oct-17 15:59N 53°20' E 007°10'0 0.0
2017-Oct-17 15:29N 53°20' E 007°10'0 0.0
2017-Oct-17 14:59N 53°20' E 007°10'0 0.0
2017-Oct-17 14:29N 53°20' E 007°10'0 0.0
2017-Oct-17 13:56N 53°20' E 007°10'0 0.0
2017-Oct-17 13:29N 53°20' E 007°10'0 0.0
2017-Oct-17 12:59N 53°20' E 007°10'0 0.0
2017-Oct-17 12:29N 53°20' E 007°10'0 0.0
2017-Oct-17 11:56N 53°20' E 007°10'0 0.0
2017-Oct-17 11:29N 53°20' E 007°10'0 0.0
2017-Oct-17 10:59N 53°20' E 007°10'0 0.0
2017-Oct-17 10:29N 53°20' E 007°10'0 0.0
2017-Oct-17 09:56N 53°20' E 007°10'0 0.0
2017-Oct-17 09:29N 53°20' E 007°10'0 0.0
2017-Oct-17 08:59N 53°20' E 007°10'0 0.0
2017-Oct-17 08:29N 53°20' E 007°10'0 0.0
2017-Oct-17 07:56N 53°20' E 007°10'0 0.0
2017-Oct-17 07:29N 53°20' E 007°10'0 0.0
2017-Oct-17 06:56N 53°20' E 007°10'0 0.0
2017-Oct-17 06:29N 53°20' E 007°10'0 0.0
2017-Oct-17 05:56N 53°20' E 007°10'0 0.0
2017-Oct-17 05:29N 53°20' E 007°10'0 0.0
2017-Oct-17 04:56N 53°20' E 007°10'0 0.0
2017-Oct-17 04:29N 53°20' E 007°10'0 0.0
2017-Oct-17 03:56N 53°20' E 007°10'0 0.0
2017-Oct-17 03:14N 53°20' E 007°10'0 0.0
2017-Oct-17 02:59N 53°20' E 007°10'0 0.0
2017-Oct-17 02:29N 53°20' E 007°10'0 0.0
2017-Oct-17 01:59N 53°20' E 007°10'0 0.0
2017-Oct-17 01:29N 53°20' E 007°10'0 0.0
2017-Oct-17 00:59N 53°20' E 007°10'0 0.0
2017-Oct-17 00:29N 53°20' E 007°10'0 0.0
2017-Oct-16 23:59N 53°20' E 007°10'0 0.0
2017-Oct-16 23:29N 53°20' E 007°10'0 0.0
2017-Oct-16 22:59N 53°20' E 007°10'0 0.0
2017-Oct-16 22:26N 53°20' E 007°10'0 0.0
2017-Oct-16 21:56N 53°20' E 007°10'0 0.0
2017-Oct-16 21:29N 53°20' E 007°10'0 0.0
2017-Oct-16 20:59N 53°20' E 007°10'0 0.1
2017-Oct-16 20:31N 53°20' E 007°10'2 3.2
2017-Oct-16 20:00N 53°20' E 007°07'4 9.0
2017-Oct-16 19:30N 53°20' E 006°60'713.3
2017-Oct-16 19:00N 53°26' E 006°54'612.5
2017-Oct-16 18:30N 53°31' E 006°47'714.3
2017-Oct-16 17:59N 53°35' E 006°37'1114.7
2017-Oct-16 17:16N 53°38' E 006°20'3 9.6
2017-Oct-16 17:00N 53°39' E 006°16'3 6.0
2017-Oct-16 16:30N 53°40' E 006°11'2 3.7
2017-Oct-16 16:00N 53°38' E 006°09'0 0.2
2017-Oct-16 15:28N 53°38' E 006°09'0 0.0
2017-Oct-16 14:55N 53°38' E 006°09'0 0.0
2017-Oct-16 13:52N 53°38' E 006°09'0 0.1
2017-Oct-16 13:22N 53°38' E 006°09'0 0.1
2017-Oct-16 12:58N 53°38' E 006°09'0 0.0
2017-Oct-16 12:28N 53°38' E 006°09'0 0.0
2017-Oct-16 05:19N 53°38' E 006°09'0 0.0
2017-Oct-16 04:55N 53°38' E 006°09'0 0.0
2017-Oct-16 03:40N 53°38' E 006°09'0 0.0
2017-Oct-16 03:22N 53°38' E 006°09'0 0.0
2017-Oct-15 23:43N 53°38' E 006°09'0 0.0
2017-Oct-15 23:13N 53°38' E 006°09'0 0.0
2017-Oct-15 22:52N 53°38' E 006°09'0 0.0
2017-Oct-15 22:28N 53°38' E 006°09'0 0.0
2017-Oct-15 21:04N 53°38' E 006°09'0 0.3
2017-Oct-15 20:45N 53°38' E 006°09'0 1.6
2017-Oct-15 20:30N 53°38' E 006°10'1 2.8
2017-Oct-15 20:00N 53°40' E 006°09'5 9.3
2017-Oct-15 19:29N 53°40' E 006°01'5 8.9
2017-Oct-15 18:57N 53°38' E 005°53'613.9
2017-Oct-15 18:29N 53°36' E 005°43'816.8
2017-Oct-15 18:00N 53°34' E 005°30'816.9
2017-Oct-15 17:30N 53°32' E 005°16'917.1
2017-Oct-15 17:00N 53°29' E 005°03'917.1
2017-Oct-15 16:30N 53°25' E 004°50'816.4
2017-Oct-15 16:00N 53°20' E 004°40'917.1
2017-Oct-15 15:30N 53°12' E 004°33'816.7
2017-Oct-15 15:00N 53°05' E 004°26'1716.7
2017-Oct-15 14:00N 52°50' E 004°13'816.8
2017-Oct-15 13:30N 52°43' E 004°05'816.9
2017-Oct-15 13:00N 52°37' E 003°55'817.0
2017-Oct-15 12:30N 52°32' E 003°45'917.1
2017-Oct-15 12:00N 52°26' E 003°35'917.2
2017-Oct-15 11:30N 52°20' E 003°25'917.4
2017-Oct-15 11:00N 52°14' E 003°15'917.6
2017-Oct-15 10:30N 52°07' E 003°05'917.6
2017-Oct-15 10:00N 52°00' E 002°56'917.6
2017-Oct-15 09:30N 51°54' E 002°47'917.3
2017-Oct-15 09:00N 51°47' E 002°37'917.4
2017-Oct-15 08:30N 51°41' E 002°28'917.3
2017-Oct-15 08:00N 51°34' E 002°19'816.8
2017-Oct-15 07:30N 51°28' E 002°10'815.5
2017-Oct-15 07:00N 51°20' E 002°08'815.6
2017-Oct-15 06:30N 51°13' E 002°03'815.9
2017-Oct-15 06:00N 51°10' E 001°51'815.4
2017-Oct-15 05:30N 51°04' E 001°42'612.2
2017-Oct-15 05:00N 50°60' E 001°36'510.6
2017-Oct-15 04:30N 50°56' E 001°30'510.0
2017-Oct-15 04:00N 50°51' E 001°27'5 9.9
2017-Oct-15 03:31N 50°47' E 001°24'5 9.9
2017-Oct-15 03:00N 50°42' E 001°20'610.7
2017-Oct-15 02:29N 50°38' E 001°14'510.8
2017-Oct-15 02:01N 50°35' E 001°08'510.9
2017-Oct-15 01:30N 50°32' E 001°01'510.9
2017-Oct-15 01:01N 50°30' E 000°53'510.9
2017-Oct-15 00:31N 50°28' E 000°45'510.8
2017-Oct-15 00:00N 50°26' E 000°36'510.7
2017-Oct-14 23:31N 50°25' E 000°28'510.5
2017-Oct-14 23:00N 50°24' E 000°21'510.5
2017-Oct-14 22:30N 50°22' E 000°12'510.7
2017-Oct-14 22:01N 50°21' E 000°05'714.3
2017-Oct-14 21:30N 50°20' W 000°07'714.6
2017-Oct-14 21:00N 50°19' W 000°18'714.5
2017-Oct-14 20:30N 50°17' W 000°29'714.6
2017-Oct-14 20:00N 50°15' W 000°40'714.8
2017-Oct-14 19:30N 50°13' W 000°51'815.2
2017-Oct-14 19:00N 50°10' W 001°02'815.8
2017-Oct-14 18:31N 50°08' W 001°14'816.2
2017-Oct-14 18:00N 50°07' W 001°27'816.6
2017-Oct-14 17:31N 50°04' W 001°39'917.0
2017-Oct-14 17:01N 50°01' W 001°52'917.4
2017-Oct-14 16:30N 49°60' W 002°05'917.7
2017-Oct-14 16:00N 49°57' W 002°18'917.6
2017-Oct-14 15:30N 49°55' W 002°31'917.2
2017-Oct-14 15:00N 49°53' W 002°44'917.1
2017-Oct-14 14:30N 49°50' W 002°57'816.8
2017-Oct-14 14:00N 49°48' W 003°09'816.8
2017-Oct-14 13:30N 49°47' W 003°22'816.7
2017-Oct-14 13:00N 49°47' W 003°35'816.6
2017-Oct-14 12:30N 49°46' W 003°48'816.6
2017-Oct-14 12:00N 49°45' W 004°01'816.4
2017-Oct-14 11:30N 49°44' W 004°13'816.3
2017-Oct-14 11:00N 49°43' W 004°26'816.1
2017-Oct-14 10:30N 49°42' W 004°38'816.1
2017-Oct-14 10:00N 49°41' W 004°51'816.1
2017-Oct-14 09:30N 49°40' W 005°03'815.2
2017-Oct-14 09:00N 49°40' W 005°15'815.8
2017-Oct-14 08:30N 49°40' W 005°27'815.9
2017-Oct-14 08:00N 49°39' W 005°39'815.7
2017-Oct-14 07:30N 49°39' W 005°51'815.5
2017-Oct-14 07:00N 49°39' W 006°03'815.0
2017-Oct-14 06:26N 49°38' W 006°16'613.4
2017-Oct-14 06:00N 49°38' W 006°25'714.4
2017-Oct-14 05:30N 49°38' W 006°37'815.5
2017-Oct-14 04:58N 49°39' W 006°49'715.5
2017-Oct-14 04:30N 49°39' W 007°00'815.7
2017-Oct-14 04:01N 49°40' W 007°12'915.7
2017-Oct-14 03:26N 49°40' W 007°26'1215.7
2017-Oct-14 02:40N 49°41' W 007°45'  
Track history (hours):
 
Tides and Currents Weather Stations Pressure Air Temp Water Temp Dewpoint Dewpoint Depression Visibility Wind Speed Wind Dir Waves Ship Positions

Goodwood

Last reported at 2017-Oct-17 23:59 UTC. Time now 2017-Oct-18 00:23 UTC.
Position N 53°20' E 007°10'.

Length 199 m; draft 8.9 m.

Type: Cargo ship. MMSI: 636016606.

Date/timePositionNaut miles runAvg speedWind from/ knotsBaromVisibWave heightAir tempDewpointWater temp
2017-Oct-17 23:59N 53°20' E 007°10'0 0.0
2017-Oct-17 23:23N 53°20' E 007°10'0 0.0
2017-Oct-17 22:59N 53°20' E 007°10'0 0.0
2017-Oct-17 22:29N 53°20' E 007°10'0 0.0
2017-Oct-17 21:59N 53°20' E 007°10'0 0.0
2017-Oct-17 21:23N 53°20' E 007°10'0 0.0
2017-Oct-17 20:59N 53°20' E 007°10'0 0.0
2017-Oct-17 20:26N 53°20' E 007°10'0 0.0
2017-Oct-17 19:59N 53°20' E 007°10'0 0.0
2017-Oct-17 19:29N 53°20' E 007°10'0 0.0
2017-Oct-17 18:59N 53°20' E 007°10'0 0.0
2017-Oct-17 18:29N 53°20' E 007°10'0 0.0
2017-Oct-17 17:59N 53°20' E 007°10'0 0.0
2017-Oct-17 17:29N 53°20' E 007°10'0 0.0
2017-Oct-17 16:59N 53°20' E 007°10'0 0.0
2017-Oct-17 16:29N 53°20' E 007°10'0 0.0
2017-Oct-17 15:59N 53°20' E 007°10'0 0.0
2017-Oct-17 15:29N 53°20' E 007°10'0 0.0
2017-Oct-17 14:59N 53°20' E 007°10'0 0.0
2017-Oct-17 14:29N 53°20' E 007°10'0 0.0
2017-Oct-17 13:56N 53°20' E 007°10'0 0.0
2017-Oct-17 13:29N 53°20' E 007°10'0 0.0
2017-Oct-17 12:59N 53°20' E 007°10'0 0.0
2017-Oct-17 12:29N 53°20' E 007°10'0 0.0
2017-Oct-17 11:56N 53°20' E 007°10'0 0.0
2017-Oct-17 11:29N 53°20' E 007°10'0 0.0
2017-Oct-17 10:59N 53°20' E 007°10'0 0.0
2017-Oct-17 10:29N 53°20' E 007°10'0 0.0
2017-Oct-17 09:56N 53°20' E 007°10'0 0.0
2017-Oct-17 09:29N 53°20' E 007°10'0 0.0
2017-Oct-17 08:59N 53°20' E 007°10'0 0.0
2017-Oct-17 08:29N 53°20' E 007°10'0 0.0
2017-Oct-17 07:56N 53°20' E 007°10'0 0.0
2017-Oct-17 07:29N 53°20' E 007°10'0 0.0
2017-Oct-17 06:56N 53°20' E 007°10'0 0.0
2017-Oct-17 06:29N 53°20' E 007°10'0 0.0
2017-Oct-17 05:56N 53°20' E 007°10'0 0.0
2017-Oct-17 05:29N 53°20' E 007°10'0 0.0
2017-Oct-17 04:56N 53°20' E 007°10'0 0.0
2017-Oct-17 04:29N 53°20' E 007°10'0 0.0
2017-Oct-17 03:56N 53°20' E 007°10'0 0.0
2017-Oct-17 03:14N 53°20' E 007°10'0 0.0
2017-Oct-17 02:59N 53°20' E 007°10'0 0.0
2017-Oct-17 02:29N 53°20' E 007°10'0 0.0
2017-Oct-17 01:59N 53°20' E 007°10'0 0.0
2017-Oct-17 01:29N 53°20' E 007°10'0 0.0
2017-Oct-17 00:59N 53°20' E 007°10'0 0.0
2017-Oct-17 00:29N 53°20' E 007°10'0 0.0
2017-Oct-16 23:59N 53°20' E 007°10'0 0.0
2017-Oct-16 23:29N 53°20' E 007°10'0 0.0
2017-Oct-16 22:59N 53°20' E 007°10'0 0.0
2017-Oct-16 22:26N 53°20' E 007°10'0 0.0
2017-Oct-16 21:56N 53°20' E 007°10'0 0.0
2017-Oct-16 21:29N 53°20' E 007°10'0 0.0
2017-Oct-16 20:59N 53°20' E 007°10'0 0.1
2017-Oct-16 20:31N 53°20' E 007°10'2 3.2
2017-Oct-16 20:00N 53°20' E 007°07'4 9.0
2017-Oct-16 19:30N 53°20' E 006°60'713.3
2017-Oct-16 19:00N 53°26' E 006°54'612.5
2017-Oct-16 18:30N 53°31' E 006°47'714.3
2017-Oct-16 17:59N 53°35' E 006°37'1114.7
2017-Oct-16 17:16N 53°38' E 006°20'3 9.6
2017-Oct-16 17:00N 53°39' E 006°16'3 6.0
2017-Oct-16 16:30N 53°40' E 006°11'2 3.7
2017-Oct-16 16:00N 53°38' E 006°09'0 0.2
2017-Oct-16 15:28N 53°38' E 006°09'0 0.0
2017-Oct-16 14:55N 53°38' E 006°09'0 0.0
2017-Oct-16 13:52N 53°38' E 006°09'0 0.1
2017-Oct-16 13:22N 53°38' E 006°09'0 0.1
2017-Oct-16 12:58N 53°38' E 006°09'0 0.0
2017-Oct-16 12:28N 53°38' E 006°09'0 0.0
2017-Oct-16 05:19N 53°38' E 006°09'0 0.0
2017-Oct-16 04:55N 53°38' E 006°09'0 0.0
2017-Oct-16 03:40N 53°38' E 006°09'0 0.0
2017-Oct-16 03:22N 53°38' E 006°09'0 0.0
2017-Oct-15 23:43N 53°38' E 006°09'0 0.0
2017-Oct-15 23:13N 53°38' E 006°09'0 0.0
2017-Oct-15 22:52N 53°38' E 006°09'0 0.0
2017-Oct-15 22:28N 53°38' E 006°09'0 0.0
2017-Oct-15 21:04N 53°38' E 006°09'0 0.3
2017-Oct-15 20:45N 53°38' E 006°09'0 1.6
2017-Oct-15 20:30N 53°38' E 006°10'1 2.8
2017-Oct-15 20:00N 53°40' E 006°09'5 9.3
2017-Oct-15 19:29N 53°40' E 006°01'5 8.9
2017-Oct-15 18:57N 53°38' E 005°53'613.9
2017-Oct-15 18:29N 53°36' E 005°43'816.8
2017-Oct-15 18:00N 53°34' E 005°30'816.9
2017-Oct-15 17:30N 53°32' E 005°16'917.1
2017-Oct-15 17:00N 53°29' E 005°03'917.1
2017-Oct-15 16:30N 53°25' E 004°50'816.4
2017-Oct-15 16:00N 53°20' E 004°40'917.1
2017-Oct-15 15:30N 53°12' E 004°33'816.7
2017-Oct-15 15:00N 53°05' E 004°26'1716.7
2017-Oct-15 14:00N 52°50' E 004°13'816.8
2017-Oct-15 13:30N 52°43' E 004°05'816.9
2017-Oct-15 13:00N 52°37' E 003°55'817.0
2017-Oct-15 12:30N 52°32' E 003°45'917.1
2017-Oct-15 12:00N 52°26' E 003°35'917.2
2017-Oct-15 11:30N 52°20' E 003°25'917.4
2017-Oct-15 11:00N 52°14' E 003°15'917.6
2017-Oct-15 10:30N 52°07' E 003°05'917.6
2017-Oct-15 10:00N 52°00' E 002°56'917.6
2017-Oct-15 09:30N 51°54' E 002°47'917.3
2017-Oct-15 09:00N 51°47' E 002°37'917.4
2017-Oct-15 08:30N 51°41' E 002°28'917.3
2017-Oct-15 08:00N 51°34' E 002°19'816.8
2017-Oct-15 07:30N 51°28' E 002°10'815.5
2017-Oct-15 07:00N 51°20' E 002°08'815.6
2017-Oct-15 06:30N 51°13' E 002°03'815.9
2017-Oct-15 06:00N 51°10' E 001°51'815.4
2017-Oct-15 05:30N 51°04' E 001°42'612.2
2017-Oct-15 05:00N 50°60' E 001°36'510.6
2017-Oct-15 04:30N 50°56' E 001°30'510.0
2017-Oct-15 04:00N 50°51' E 001°27'5 9.9
2017-Oct-15 03:31N 50°47' E 001°24'5 9.9
2017-Oct-15 03:00N 50°42' E 001°20'610.7
2017-Oct-15 02:29N 50°38' E 001°14'510.8
2017-Oct-15 02:01N 50°35' E 001°08'510.9
2017-Oct-15 01:30N 50°32' E 001°01'510.9
2017-Oct-15 01:01N 50°30' E 000°53'510.9
2017-Oct-15 00:31N 50°28' E 000°45'510.8
2017-Oct-15 00:00N 50°26' E 000°36'510.7
2017-Oct-14 23:31N 50°25' E 000°28'510.5
2017-Oct-14 23:00N 50°24' E 000°21'510.5
2017-Oct-14 22:30N 50°22' E 000°12'510.7
2017-Oct-14 22:01N 50°21' E 000°05'714.3
2017-Oct-14 21:30N 50°20' W 000°07'714.6
2017-Oct-14 21:00N 50°19' W 000°18'714.5
2017-Oct-14 20:30N 50°17' W 000°29'714.6
2017-Oct-14 20:00N 50°15' W 000°40'714.8
2017-Oct-14 19:30N 50°13' W 000°51'815.2
2017-Oct-14 19:00N 50°10' W 001°02'815.8
2017-Oct-14 18:31N 50°08' W 001°14'816.2
2017-Oct-14 18:00N 50°07' W 001°27'816.6
2017-Oct-14 17:31N 50°04' W 001°39'917.0
2017-Oct-14 17:01N 50°01' W 001°52'917.4
2017-Oct-14 16:30N 49°60' W 002°05'917.7
2017-Oct-14 16:00N 49°57' W 002°18'917.6
2017-Oct-14 15:30N 49°55' W 002°31'917.2
2017-Oct-14 15:00N 49°53' W 002°44'917.1
2017-Oct-14 14:30N 49°50' W 002°57'816.8
2017-Oct-14 14:00N 49°48' W 003°09'816.8
2017-Oct-14 13:30N 49°47' W 003°22'816.7
2017-Oct-14 13:00N 49°47' W 003°35'816.6
2017-Oct-14 12:30N 49°46' W 003°48'816.6
2017-Oct-14 12:00N 49°45' W 004°01'816.4
2017-Oct-14 11:30N 49°44' W 004°13'816.3
2017-Oct-14 11:00N 49°43' W 004°26'816.1
2017-Oct-14 10:30N 49°42' W 004°38'816.1
2017-Oct-14 10:00N 49°41' W 004°51'816.1
2017-Oct-14 09:30N 49°40' W 005°03'815.2
2017-Oct-14 09:00N 49°40' W 005°15'815.8
2017-Oct-14 08:30N 49°40' W 005°27'815.9
2017-Oct-14 08:00N 49°39' W 005°39'815.7
2017-Oct-14 07:30N 49°39' W 005°51'815.5
2017-Oct-14 07:00N 49°39' W 006°03'815.0
2017-Oct-14 06:26N 49°38' W 006°16'613.4
2017-Oct-14 06:00N 49°38' W 006°25'714.4
2017-Oct-14 05:30N 49°38' W 006°37'815.5
2017-Oct-14 04:58N 49°39' W 006°49'715.5
2017-Oct-14 04:30N 49°39' W 007°00'815.7
2017-Oct-14 04:01N 49°40' W 007°12'915.7
2017-Oct-14 03:26N 49°40' W 007°26'1215.7
2017-Oct-14 02:40N 49°41' W 007°45'  

Dump ship's entire track history